createdAt,value
2018-06-09T00:02:08.408Z,40.10
2018-06-09T00:04:36.648Z,66.17
2018-06-09T00:07:04.900Z,38.77
2018-06-09T00:09:33.218Z,38.63
2018-06-09T00:12:01.533Z,38.40
2018-06-09T00:14:29.808Z,40.93
2018-06-09T00:16:58.082Z,34.80
2018-06-09T00:19:26.371Z,43.83
2018-06-09T00:21:54.627Z,42.83
2018-06-09T00:24:22.896Z,36.70
2018-06-09T00:26:51.197Z,39.63
2018-06-09T00:29:19.481Z,41.07
2018-06-09T00:31:47.720Z,44.00
2018-06-09T00:34:15.983Z,37.43
2018-06-09T00:36:44.242Z,39.67
2018-06-09T00:39:12.548Z,41.50
2018-06-09T00:41:40.827Z,33.37
2018-06-09T00:44:09.075Z,39.90
2018-06-09T00:46:37.348Z,33.43
2018-06-09T00:49:05.600Z,37.20
2018-06-09T00:51:33.889Z,44.03
2018-06-09T00:54:02.152Z,38.50
2018-06-09T00:56:42.778Z,40.73
2018-06-09T00:59:11.068Z,35.20
2018-06-09T01:01:39.362Z,35.30
2018-06-09T01:04:08.445Z,37.07
2018-06-09T01:06:36.684Z,36.03
2018-06-09T01:09:07.336Z,30.90
2018-06-09T01:11:35.737Z,36.60
2018-06-09T01:14:03.984Z,36.07
2018-06-09T01:16:32.272Z,37.07
2018-06-09T01:19:00.597Z,30.63
2018-06-09T01:21:28.884Z,37.03
2018-06-09T01:23:57.143Z,33.90
2018-06-09T01:26:25.399Z,35.47
2018-06-09T01:28:53.657Z,37.60
2018-06-09T01:31:21.938Z,45.50
2018-06-09T01:33:50.204Z,32.73
2018-06-09T01:36:18.453Z,33.00
2018-06-09T01:38:46.784Z,37.60
2018-06-09T01:41:15.105Z,32.83
2018-06-09T01:43:43.359Z,36.67
2018-06-09T01:46:11.631Z,45.77
2018-06-09T01:48:39.869Z,32.80
2018-06-09T01:51:08.093Z,34.40
2018-06-09T01:53:36.354Z,36.47
2018-06-09T01:56:04.348Z,40.57
2018-06-09T01:58:32.629Z,33.30
2018-06-09T02:01:01.051Z,40.43
2018-06-09T02:03:29.319Z,31.93
2018-06-09T02:05:57.592Z,35.20
2018-06-09T02:08:25.856Z,52.67
2018-06-09T02:10:54.150Z,36.97
2018-06-09T02:13:22.436Z,40.00
2018-06-09T02:15:50.698Z,30.40
2018-06-09T02:18:18.979Z,34.73
2018-06-09T02:20:47.243Z,37.03
2018-06-09T02:23:15.537Z,35.23
2018-06-09T02:25:43.799Z,42.37
2018-06-09T02:28:12.057Z,39.53
2018-06-09T02:30:40.409Z,38.87
2018-06-09T02:33:08.644Z,36.53
2018-06-09T02:35:36.899Z,37.37
2018-06-09T02:38:05.231Z,40.57
2018-06-09T02:40:33.504Z,36.03
2018-06-09T02:43:01.768Z,36.97
2018-06-09T02:45:30.074Z,35.50
2018-06-09T02:47:58.329Z,36.73
2018-06-09T02:50:26.564Z,33.00
2018-06-09T02:52:54.841Z,36.10
2018-06-09T02:55:23.129Z,59.43
2018-06-09T02:57:51.365Z,35.87
2018-06-09T03:00:19.786Z,33.97
2018-06-09T03:02:48.028Z,40.20
2018-06-09T03:05:16.292Z,37.07
2018-06-09T03:07:44.564Z,34.20
2018-06-09T03:10:12.792Z,37.10
2018-06-09T03:12:41.099Z,38.10
2018-06-09T03:15:09.388Z,39.83
2018-06-09T03:17:37.624Z,40.73
2018-06-09T03:20:05.889Z,40.47
2018-06-09T03:22:34.184Z,35.50
2018-06-09T03:25:02.424Z,36.97
2018-06-09T03:27:30.719Z,44.73
2018-06-09T03:29:59.024Z,41.77
2018-06-09T03:32:27.319Z,34.10
2018-06-09T03:34:55.567Z,40.37
2018-06-09T03:37:23.839Z,42.63
2018-06-09T03:39:52.089Z,61.03
2018-06-09T03:42:20.320Z,41.33
2018-06-09T03:44:48.359Z,40.57
2018-06-09T03:47:16.637Z,38.47
2018-06-09T03:49:44.940Z,39.20
2018-06-09T03:52:12.944Z,43.53
2018-06-09T03:54:41.216Z,40.37
2018-06-09T03:57:09.469Z,38.10
2018-06-09T03:59:37.787Z,41.43
2018-06-09T04:02:06.297Z,36.20
2018-06-09T04:04:34.572Z,41.53
2018-06-09T04:07:02.849Z,39.80
2018-06-09T04:09:31.146Z,38.03
2018-06-09T04:11:59.435Z,43.10
2018-06-09T04:14:27.717Z,39.97
2018-06-09T04:16:55.725Z,37.53
2018-06-09T04:19:23.968Z,43.47
2018-06-09T04:21:52.228Z,45.67
2018-06-09T04:24:20.539Z,36.27
2018-06-09T04:26:49.917Z,40.90
2018-06-09T04:29:18.327Z,42.00
2018-06-09T04:31:46.599Z,43.60
2018-06-09T04:34:14.892Z,47.67
2018-06-09T04:36:43.188Z,41.20
2018-06-09T04:39:11.465Z,45.60
2018-06-09T04:41:39.758Z,55.20
2018-06-09T04:44:08.013Z,45.00
2018-06-09T04:46:36.288Z,49.90
2018-06-09T04:49:04.550Z,44.93
2018-06-09T04:51:32.839Z,49.87
2018-06-09T04:54:01.137Z,41.77
2018-06-09T04:56:29.381Z,38.57
2018-06-09T04:58:57.671Z,42.47
2018-06-09T05:01:25.940Z,45.13
2018-06-09T05:03:54.216Z,43.37
2018-06-09T05:06:22.495Z,41.37
2018-06-09T05:08:50.787Z,49.10
2018-06-09T05:11:19.060Z,40.27
2018-06-09T05:13:47.325Z,36.70
2018-06-09T05:16:15.583Z,42.00
2018-06-09T05:18:43.839Z,40.30
2018-06-09T05:21:12.099Z,39.83
2018-06-09T05:23:40.415Z,42.03
2018-06-09T05:26:08.685Z,42.67
2018-06-09T05:28:36.944Z,41.03
2018-06-09T05:31:05.239Z,40.27
2018-06-09T05:33:33.540Z,36.83
2018-06-09T05:36:01.780Z,35.03
2018-06-09T05:38:30.045Z,32.07
2018-06-09T05:40:58.319Z,36.67
2018-06-09T05:43:26.551Z,29.90
2018-06-09T05:45:54.849Z,31.97
2018-06-09T05:48:23.103Z,32.93
2018-06-09T05:50:51.481Z,35.37
2018-06-09T05:53:19.749Z,33.83
2018-06-09T05:55:47.997Z,32.63
2018-06-09T05:58:16.278Z,31.60
2018-06-09T06:00:44.552Z,34.87
2018-06-09T06:03:12.879Z,31.90
2018-06-09T06:05:41.152Z,35.03
2018-06-09T06:08:09.417Z,38.40
2018-06-09T06:10:37.715Z,33.53
2018-06-09T06:13:05.975Z,38.43
2018-06-09T06:15:34.258Z,30.47
2018-06-09T06:18:02.508Z,35.47
2018-06-09T06:20:30.839Z,39.13
2018-06-09T06:22:59.094Z,32.30
2018-06-09T06:25:27.375Z,37.90
2018-06-09T06:27:55.635Z,30.43
2018-06-09T06:30:23.879Z,32.47
2018-06-09T06:32:52.133Z,34.07
2018-06-09T06:35:20.383Z,45.90
2018-06-09T06:37:48.403Z,36.60
2018-06-09T06:40:16.674Z,34.00
2018-06-09T06:42:44.888Z,30.97
2018-06-09T06:45:13.343Z,32.13
2018-06-09T06:47:41.653Z,31.87
2018-06-09T06:50:09.995Z,35.73
2018-06-09T06:52:38.308Z,46.03
2018-06-09T06:55:06.608Z,40.33
2018-06-09T06:57:34.894Z,34.57
2018-06-09T07:00:03.192Z,27.27
2018-06-09T07:02:31.539Z,30.47
2018-06-09T07:04:59.912Z,34.27
2018-06-09T07:07:28.241Z,26.40
2018-06-09T07:09:57.361Z,33.03
2018-06-09T07:12:26.700Z,23.17
2018-06-09T07:14:55.379Z,30.40
2018-06-09T07:17:24.679Z,29.83
2018-06-09T07:19:55.493Z,34.27
2018-06-09T07:22:24.271Z,36.20
2018-06-09T07:24:53.702Z,23.80
2018-06-09T07:27:22.144Z,32.87
2018-06-09T07:29:50.556Z,29.63
2018-06-09T07:32:18.799Z,28.23
2018-06-09T07:34:47.116Z,25.97
2018-06-09T07:37:15.191Z,35.03
2018-06-09T07:39:43.505Z,23.67
2018-06-09T07:42:11.772Z,25.97
2018-06-09T07:44:39.988Z,28.83
2018-06-09T07:47:07.981Z,24.80
2018-06-09T07:49:36.267Z,25.90
2018-06-09T07:52:04.523Z,25.40
2018-06-09T07:54:32.784Z,29.23
2018-06-09T07:57:01.128Z,22.10
2018-06-09T07:59:29.384Z,28.23
2018-06-09T08:01:57.674Z,33.17
2018-06-09T08:04:25.920Z,28.70
2018-06-09T08:06:54.213Z,29.47
2018-06-09T08:09:22.495Z,21.60
2018-06-09T08:11:50.722Z,26.93
2018-06-09T08:14:18.970Z,21.47
2018-06-09T08:16:47.208Z,25.70
2018-06-09T08:19:15.277Z,21.73
2018-06-09T08:21:43.513Z,26.50
2018-06-09T08:24:11.792Z,26.63
2018-06-09T08:26:39.767Z,23.87
2018-06-09T08:29:08.022Z,26.20
2018-06-09T08:31:36.269Z,28.37
2018-06-09T08:34:04.535Z,28.80
2018-06-09T08:36:32.557Z,29.60
2018-06-09T08:39:00.831Z,25.77
2018-06-09T08:41:29.203Z,22.67
2018-06-09T08:43:57.467Z,23.17
2018-06-09T08:46:25.725Z,27.97
2018-06-09T08:48:54.079Z,18.73
2018-06-09T08:51:22.370Z,28.50
2018-06-09T08:53:50.640Z,22.70
2018-06-09T08:56:18.887Z,22.87
2018-06-09T08:58:47.188Z,29.93
2018-06-09T09:01:15.493Z,24.13
2018-06-09T09:03:43.855Z,31.40
2018-06-09T09:06:12.083Z,25.70
2018-06-09T09:08:40.399Z,26.77
2018-06-09T09:11:08.848Z,28.53
2018-06-09T09:13:37.172Z,28.60
2018-06-09T09:16:05.550Z,37.37
2018-06-09T09:18:33.872Z,21.53
2018-06-09T09:21:02.137Z,19.50
2018-06-09T09:23:30.473Z,22.33
2018-06-09T09:25:58.435Z,21.20
2018-06-09T09:28:26.708Z,19.77
2018-06-09T09:30:54.941Z,29.67
2018-06-09T09:33:23.232Z,20.03
2018-06-09T09:35:51.543Z,22.90
2018-06-09T09:38:19.780Z,22.00
2018-06-09T09:40:48.178Z,23.40
2018-06-09T09:43:16.443Z,23.07
2018-06-09T09:45:44.848Z,25.73
2018-06-09T09:48:13.089Z,28.90
2018-06-09T09:50:41.351Z,21.20
2018-06-09T09:53:09.649Z,21.53
2018-06-09T09:55:37.942Z,22.17
2018-06-09T09:58:06.208Z,22.23
2018-06-09T10:00:38.233Z,21.50
2018-06-09T10:03:06.544Z,18.17
2018-06-09T10:05:34.925Z,22.70
2018-06-09T10:08:03.424Z,18.50
2018-06-09T10:10:32.138Z,19.47
2018-06-09T10:13:00.405Z,18.53
2018-06-09T10:15:28.654Z,19.70
2018-06-09T10:17:56.907Z,24.70
2018-06-09T10:20:25.137Z,17.67
2018-06-09T10:22:53.467Z,24.97
2018-06-09T10:25:21.678Z,17.43
2018-06-09T10:27:49.670Z,19.67
2018-06-09T10:30:17.958Z,21.63
2018-06-09T10:32:46.235Z,16.70
2018-06-09T10:35:14.495Z,21.73
2018-06-09T10:37:42.791Z,26.80
2018-06-09T10:40:11.083Z,20.47
2018-06-09T10:42:39.401Z,18.57
2018-06-09T10:45:08.330Z,30.63
2018-06-09T10:47:36.603Z,19.87
2018-06-09T10:50:04.673Z,21.17
2018-06-09T10:52:33.532Z,23.53
2018-06-09T10:55:01.820Z,29.37
2018-06-09T10:57:30.157Z,22.17
2018-06-09T10:59:58.395Z,25.57
2018-06-09T11:02:26.656Z,20.67
2018-06-09T11:04:55.117Z,25.50
2018-06-09T11:07:23.355Z,19.50
2018-06-09T11:09:51.671Z,21.13
2018-06-09T11:12:19.966Z,22.27
2018-06-09T11:14:48.221Z,19.50
2018-06-09T11:17:16.487Z,20.60
2018-06-09T11:19:44.786Z,21.47
2018-06-09T11:22:13.072Z,19.00
2018-06-09T11:24:41.405Z,23.47
2018-06-09T11:27:09.740Z,19.30
2018-06-09T11:29:37.994Z,35.60
2018-06-09T11:32:06.325Z,18.43
2018-06-09T11:34:34.470Z,22.10
2018-06-09T11:37:02.693Z,19.30
2018-06-09T11:39:31.072Z,16.40
2018-06-09T11:41:59.335Z,17.60
2018-06-09T11:44:27.857Z,26.07
2018-06-09T11:46:56.183Z,18.33
2018-06-09T11:49:24.215Z,15.40
2018-06-09T11:51:52.499Z,20.93
2018-06-09T11:54:20.765Z,17.43
2018-06-09T11:56:49.037Z,21.93
2018-06-09T11:59:17.359Z,18.10
2018-06-09T12:01:45.689Z,21.17
2018-06-09T12:04:13.933Z,26.33
2018-06-09T12:06:42.220Z,15.77
2018-06-09T12:09:10.790Z,18.60
2018-06-09T12:11:39.064Z,24.33
2018-06-09T12:14:07.367Z,18.43
2018-06-09T12:16:35.656Z,14.27
2018-06-09T12:19:03.971Z,15.77
2018-06-09T12:21:32.209Z,15.07
2018-06-09T12:24:00.887Z,19.03
2018-06-09T12:26:29.173Z,20.73
2018-06-09T12:28:57.453Z,20.70
2018-06-09T12:31:25.717Z,22.17
2018-06-09T12:33:53.975Z,23.07
2018-06-09T12:36:22.344Z,23.20
2018-06-09T12:38:50.454Z,16.30
2018-06-09T12:41:18.861Z,27.97
2018-06-09T12:43:47.561Z,17.30
2018-06-09T12:46:16.458Z,17.60
2018-06-09T12:48:44.829Z,16.13
2018-06-09T12:51:13.622Z,22.40
2018-06-09T12:53:43.153Z,20.20
2018-06-09T12:56:11.846Z,22.47
2018-06-09T12:58:40.618Z,21.93
2018-06-09T13:01:09.156Z,15.80
2018-06-09T13:03:38.504Z,17.27
2018-06-09T13:06:07.023Z,18.70
2018-06-09T13:08:35.462Z,16.63
2018-06-09T13:11:03.933Z,16.00
2018-06-09T13:13:32.599Z,15.90
2018-06-09T13:16:01.424Z,14.80
2018-06-09T13:18:30.209Z,26.00
2018-06-09T13:20:58.520Z,14.40
2018-06-09T13:23:26.774Z,18.60
2018-06-09T13:25:55.040Z,22.80
2018-06-09T13:28:23.375Z,22.03
2018-06-09T13:30:51.428Z,23.70
2018-06-09T13:33:19.720Z,20.37
2018-06-09T13:35:47.971Z,17.60
2018-06-09T13:38:16.257Z,21.60
2018-06-09T13:40:44.715Z,34.30
2018-06-09T13:43:12.964Z,18.93
2018-06-09T13:45:41.249Z,17.30
2018-06-09T13:48:09.517Z,17.13
2018-06-09T13:50:37.811Z,13.20
2018-06-09T13:53:06.071Z,13.80
2018-06-09T13:55:34.317Z,15.70
2018-06-09T13:58:02.567Z,16.50
2018-06-09T14:00:30.859Z,10.67
2018-06-09T14:02:59.119Z,14.80
2018-06-09T14:05:27.405Z,13.63
2018-06-09T14:07:55.638Z,9.20
2018-06-09T14:10:23.922Z,11.17
2018-06-09T14:12:52.184Z,10.83
2018-06-09T14:15:20.496Z,15.57
2018-06-09T14:17:48.821Z,11.33
2018-06-09T14:20:17.039Z,11.87
2018-06-09T14:22:45.313Z,9.73
2018-06-09T14:25:13.725Z,8.50
2018-06-09T14:27:42.044Z,8.53
2018-06-09T14:30:10.540Z,7.90
2018-06-09T14:32:38.831Z,8.40
2018-06-09T14:35:07.034Z,10.43
2018-06-09T14:37:35.309Z,7.70
2018-06-09T14:40:03.611Z,7.20
2018-06-09T14:42:31.872Z,9.53
2018-06-09T14:45:00.125Z,16.27
2018-06-09T14:47:28.356Z,6.53
2018-06-09T14:49:56.603Z,13.30
2018-06-09T14:52:24.935Z,11.57
2018-06-09T14:54:53.188Z,8.87
2018-06-09T14:57:21.452Z,7.20
2018-06-09T14:59:49.840Z,12.00
2018-06-09T15:02:18.138Z,11.57
2018-06-09T15:04:46.427Z,7.40
2018-06-09T15:07:14.676Z,8.10
2018-06-09T15:09:54.440Z,8.67
2018-06-09T15:12:22.844Z,10.70
2018-06-09T15:14:51.101Z,6.43
2018-06-09T15:17:19.360Z,6.43
2018-06-09T15:19:47.589Z,6.20
2018-06-09T15:22:15.594Z,8.03
2018-06-09T15:24:43.875Z,12.60
2018-06-09T15:27:12.162Z,5.83
2018-06-09T15:29:41.299Z,8.57
2018-06-09T15:32:09.564Z,5.50
2018-06-09T15:34:37.952Z,6.63
2018-06-09T15:37:06.509Z,5.03
2018-06-09T15:39:34.825Z,5.83
2018-06-09T15:42:03.133Z,6.07
2018-06-09T15:44:31.375Z,9.40
2018-06-09T15:46:59.652Z,8.60
2018-06-09T15:49:27.932Z,8.23
2018-06-09T15:51:56.230Z,9.90
2018-06-09T15:54:24.561Z,8.43
2018-06-09T15:56:52.844Z,11.50
2018-06-09T15:59:21.315Z,16.10
2018-06-09T16:01:49.576Z,8.27
2018-06-09T16:04:17.813Z,9.43
2018-06-09T16:06:46.090Z,12.83
2018-06-09T16:09:14.417Z,9.20
2018-06-09T16:11:42.611Z,8.80
2018-06-09T16:14:10.844Z,11.43
2018-06-09T16:16:39.107Z,10.30
2018-06-09T16:19:07.403Z,10.67
2018-06-09T16:21:35.663Z,14.40
2018-06-09T16:24:04.539Z,13.83
2018-06-09T16:26:32.529Z,15.30
2018-06-09T16:29:00.801Z,11.43
2018-06-09T16:31:29.081Z,15.23
2018-06-09T16:33:57.323Z,19.73
2018-06-09T16:36:25.595Z,13.13
2018-06-09T16:38:53.871Z,12.20
2018-06-09T16:41:22.140Z,12.80
2018-06-09T16:43:50.399Z,14.60
2018-06-09T16:46:18.692Z,14.80
2018-06-09T16:48:46.984Z,10.93
2018-06-09T16:51:15.240Z,16.70
2018-06-09T16:53:43.491Z,14.40
2018-06-09T16:56:11.500Z,11.87
2018-06-09T16:58:39.776Z,16.57
2018-06-09T17:01:08.121Z,14.33
2018-06-09T17:03:36.091Z,11.87
2018-06-09T17:06:11.153Z,12.23
2018-06-09T17:08:39.433Z,13.40
2018-06-09T17:11:07.688Z,15.53
2018-06-09T17:13:35.949Z,13.53
2018-06-09T17:16:04.406Z,12.70
2018-06-09T17:18:32.685Z,16.30
2018-06-09T17:21:01.001Z,14.57
2018-06-09T17:23:29.229Z,10.40
2018-06-09T17:25:57.509Z,14.20
2018-06-09T17:28:25.754Z,12.10
2018-06-09T17:30:53.990Z,14.53
2018-06-09T17:33:22.255Z,35.23
2018-06-09T17:35:50.498Z,12.77
2018-06-09T17:38:18.770Z,11.00
2018-06-09T17:40:47.047Z,15.93
2018-06-09T17:43:15.306Z,13.47
2018-06-09T17:45:43.615Z,20.37
2018-06-09T17:48:11.657Z,18.13
2018-06-09T17:50:40.153Z,16.10
2018-06-09T17:53:08.360Z,16.57
2018-06-09T17:55:36.596Z,13.20
2018-06-09T17:58:04.859Z,13.87
2018-06-09T18:00:33.117Z,14.83
2018-06-09T18:03:01.404Z,20.03
2018-06-09T18:05:29.650Z,32.67
2018-06-09T18:07:57.939Z,13.77
2018-06-09T18:10:26.212Z,18.90
2018-06-09T18:12:54.479Z,13.47
2018-06-09T18:15:22.488Z,14.80
2018-06-09T18:17:50.716Z,16.00
2018-06-09T18:20:19.017Z,13.90
2018-06-09T18:22:47.267Z,13.43
2018-06-09T18:25:15.516Z,14.70
2018-06-09T18:27:43.755Z,11.50
2018-06-09T18:30:12.009Z,21.13
2018-06-09T18:32:40.036Z,11.50
2018-06-09T18:35:08.284Z,26.23
2018-06-09T18:37:36.588Z,15.37
2018-06-09T18:40:04.967Z,15.40
2018-06-09T18:42:33.265Z,26.10
2018-06-09T18:45:01.500Z,20.33
2018-06-09T18:47:29.789Z,13.57
2018-06-09T18:49:58.141Z,16.30
2018-06-09T18:52:26.468Z,15.27
2018-06-09T18:54:54.745Z,15.90
2018-06-09T18:57:23.020Z,17.07
2018-06-09T18:59:51.252Z,17.80
2018-06-09T19:02:19.527Z,17.10
2018-06-09T19:04:47.809Z,13.37
2018-06-09T19:07:16.105Z,16.27
2018-06-09T19:09:44.389Z,15.20
2018-06-09T19:12:12.667Z,15.30
2018-06-09T19:14:40.957Z,17.60
2018-06-09T19:17:09.207Z,15.33
2018-06-09T19:19:37.431Z,17.77
2018-06-09T19:22:05.838Z,14.63
2018-06-09T19:24:34.017Z,22.90
2018-06-09T19:27:02.288Z,20.37
2018-06-09T19:29:30.560Z,18.13
2018-06-09T19:31:58.884Z,15.63
2018-06-09T19:34:27.116Z,14.73
2018-06-09T19:36:55.333Z,18.70
2018-06-09T19:39:25.079Z,19.90
2018-06-09T19:41:53.323Z,19.23
2018-06-09T19:44:21.585Z,29.27
2018-06-09T19:46:49.578Z,14.73
2018-06-09T19:49:18.016Z,24.93
2018-06-09T19:51:47.006Z,17.53
2018-06-09T19:54:15.548Z,17.40
2018-06-09T19:56:43.903Z,13.93
2018-06-09T19:59:12.415Z,21.10
2018-06-09T20:01:40.921Z,18.70
2018-06-09T20:04:09.342Z,12.00
2018-06-09T20:06:38.905Z,16.10
2018-06-09T20:09:08.302Z,12.80
2018-06-09T20:11:36.754Z,23.97
2018-06-09T20:14:05.304Z,16.70
2018-06-09T20:16:33.805Z,16.07
2018-06-09T20:19:02.425Z,21.03
2018-06-09T20:21:30.768Z,15.70
2018-06-09T20:23:59.407Z,20.90
2018-06-09T20:26:27.898Z,15.83
2018-06-09T20:28:55.882Z,16.40
2018-06-09T20:31:24.334Z,18.70
2018-06-09T20:33:52.890Z,19.10
2018-06-09T20:36:21.371Z,18.90
2018-06-09T20:38:49.635Z,16.10
2018-06-09T20:41:18.403Z,18.10
2018-06-09T20:43:47.015Z,12.93
2018-06-09T20:46:15.890Z,19.27
2018-06-09T20:48:44.657Z,16.07
2018-06-09T20:51:13.274Z,28.20
2018-06-09T20:53:42.071Z,18.80
2018-06-09T20:56:10.388Z,15.30
2018-06-09T20:58:39.234Z,23.77
2018-06-09T21:01:08.718Z,15.63
2018-06-09T21:03:37.463Z,20.37
2018-06-09T21:06:06.345Z,17.10
2018-06-09T21:08:34.980Z,21.30
2018-06-09T21:11:03.734Z,24.27
2018-06-09T21:13:32.570Z,21.97
2018-06-09T21:16:01.508Z,21.53
2018-06-09T21:18:30.354Z,15.60
2018-06-09T21:20:59.099Z,18.70
2018-06-09T21:23:27.979Z,27.03
2018-06-09T21:25:56.535Z,16.10
2018-06-09T21:28:24.770Z,16.87
2018-06-09T21:30:58.773Z,25.90
2018-06-09T21:33:43.931Z,22.87
2018-06-09T21:36:14.859Z,21.23
2018-06-09T21:39:46.870Z,26.30
2018-06-09T21:42:20.163Z,18.70
2018-06-09T21:44:53.313Z,20.50
2018-06-09T21:47:22.413Z,22.60
2018-06-09T21:49:51.384Z,19.20
2018-06-09T21:52:20.530Z,21.27
2018-06-09T21:54:49.594Z,20.00
2018-06-09T21:57:17.844Z,30.00
2018-06-09T21:59:46.093Z,25.30
2018-06-09T22:02:14.344Z,16.87
2018-06-09T22:04:42.678Z,22.60
2018-06-09T22:07:10.909Z,18.10
2018-06-09T22:09:39.140Z,22.23
2018-06-09T22:12:07.412Z,20.23
2018-06-09T22:14:35.669Z,22.17
2018-06-09T22:17:04.312Z,23.80
2018-06-09T22:19:32.719Z,23.10
2018-06-09T22:22:01.035Z,23.70
2018-06-09T22:24:29.284Z,21.90
2018-06-09T22:26:57.512Z,18.10
2018-06-09T22:29:25.776Z,20.47
2018-06-09T22:31:54.020Z,27.10
2018-06-09T22:34:22.277Z,21.97
2018-06-09T22:36:50.273Z,20.87
2018-06-09T22:39:18.530Z,23.43
2018-06-09T22:41:46.789Z,22.30
2018-06-09T22:44:15.057Z,20.80
2018-06-09T22:46:43.306Z,26.53
2018-06-09T22:49:11.647Z,26.37
2018-06-09T22:51:39.921Z,20.43
2018-06-09T22:54:08.144Z,24.23
2018-06-09T22:56:36.419Z,27.87
2018-06-09T22:59:04.667Z,26.50
2018-06-09T23:01:32.623Z,21.37
2018-06-09T23:04:00.877Z,29.50
2018-06-09T23:06:29.146Z,22.40
2018-06-09T23:08:57.401Z,21.90
2018-06-09T23:11:25.683Z,35.43
2018-06-09T23:13:53.968Z,24.37
2018-06-09T23:16:22.207Z,23.53
2018-06-09T23:18:50.551Z,22.47
2018-06-09T23:21:18.816Z,28.00
2018-06-09T23:23:47.083Z,27.60
2018-06-09T23:26:15.360Z,27.07
2018-06-09T23:28:43.606Z,26.67
2018-06-09T23:31:11.871Z,20.23
2018-06-09T23:33:40.190Z,28.93
2018-06-09T23:36:08.432Z,31.83
2018-06-09T23:38:36.676Z,21.10
2018-06-09T23:41:05.076Z,32.10
2018-06-09T23:43:33.324Z,24.97
2018-06-09T23:46:01.585Z,31.43
2018-06-09T23:48:29.820Z,25.00
2018-06-09T23:50:58.034Z,34.57
2018-06-09T23:53:26.035Z,24.03
2018-06-09T23:55:54.308Z,29.00
2018-06-09T23:58:22.540Z,24.63
